Time;durP1;ratioP1;P1;durP2;ratioP2;P2;SDS_P1;SDS_P2;PMS_P1;PMS_P2;Temp;Humidity;BMP_temperature;BMP_pressure;BME280_temperature;BME280_humidity;BME280_pressure;Samples;Min_cycle;Max_cycle;Signal;HPM_P1;HPM_P2
2024/04/18 00:00:35;;;;;;;9.77;9.03;;;;;;;7.84;84.75;100179.59;5307022;26;20794;-78
2024/04/18 00:03:01;;;;;;;9.83;9.13;;;;;;;7.69;85.28;100181.50;5307973;26;20267;-77
2024/04/18 00:05:29;;;;;;;10.60;9.90;;;;;;;7.60;85.76;100167.78;5308268;26;20725;-77
2024/04/18 00:07:54;;;;;;;11.27;10.47;;;;;;;7.51;86.68;100154.00;5306601;26;20244;-75
2024/04/18 00:10:25;;;;;;;11.50;10.67;;;;;;;7.58;86.33;100144.41;5307261;27;20264;-77
2024/04/18 00:12:50;;;;;;;11.77;10.67;;;;;;;7.59;86.21;100142.66;5307520;26;20262;-77
2024/04/18 00:15:20;;;;;;;11.23;10.47;;;;;;;7.51;86.33;100147.94;5308160;27;20810;-77
2024/04/18 00:17:46;;;;;;;10.77;9.97;;;;;;;7.48;85.90;100147.97;5305410;27;20297;-77
2024/04/18 00:20:14;;;;;;;12.03;11.13;;;;;;;7.45;85.71;100155.78;5306625;26;20316;-77
2024/04/18 00:22:39;;;;;;;10.63;9.83;;;;;;;7.35;85.79;100160.22;5306466;27;20721;-75
2024/04/18 00:25:09;;;;;;;10.93;10.10;;;;;;;7.39;85.48;100159.31;5309088;26;20265;-76
2024/04/18 00:27:37;;;;;;;10.30;9.60;;;;;;;7.32;85.33;100181.03;5310260;27;20263;-77
2024/04/18 00:30:05;;;;;;;10.17;9.43;;;;;;;7.29;84.57;100184.50;5295751;27;20790;-76
2024/04/18 00:32:30;;;;;;;10.53;9.37;;;;;;;7.33;84.73;100191.41;5309937;26;20989;-77
2024/04/18 00:34:59;;;;;;;10.30;9.50;;;;;;;7.34;84.48;100195.72;5310114;26;20276;-77
2024/04/18 00:37:24;;;;;;;10.27;9.27;;;;;;;7.30;85.33;100185.38;5311443;26;20238;-77
2024/04/18 00:39:52;;;;;;;8.83;8.20;;;;;;;7.37;85.70;100181.84;5309386;26;20284;-77
2024/04/18 00:42:18;;;;;;;8.70;7.83;;;;;;;7.43;85.66;100171.38;5309915;26;20251;-77
2024/04/18 00:44:48;;;;;;;7.47;6.90;;;;;;;7.49;85.96;100170.47;5310281;26;20584;-76
2024/04/18 00:47:15;;;;;;;7.97;7.37;;;;;;;7.41;85.88;100174.88;5310030;26;20235;-77
2024/04/18 00:49:43;;;;;;;7.10;6.50;;;;;;;7.28;85.50;100177.59;5310288;26;20236;-77
2024/04/18 00:52:11;;;;;;;7.07;6.47;;;;;;;7.20;85.56;100181.16;5310276;26;20274;-77
2024/04/18 00:54:40;;;;;;;7.77;7.17;;;;;;;7.07;85.87;100173.47;5310664;26;20302;-77
2024/04/18 00:57:05;;;;;;;6.87;6.27;;;;;;;7.15;86.34;100166.50;5311498;26;20266;-77
2024/04/18 00:59:33;;;;;;;6.00;5.60;;;;;;;7.13;86.45;100156.97;5311109;26;20236;-77
2024/04/18 01:02:02;;;;;;;6.23;5.83;;;;;;;7.00;86.96;100160.56;5309720;26;20261;-77
2024/04/18 01:04:30;;;;;;;5.73;5.33;;;;;;;7.03;86.28;100155.34;5308818;26;20624;-77
2024/04/18 01:06:55;;;;;;;6.03;5.63;;;;;;;7.09;86.22;100155.28;5309360;26;20263;-77
2024/04/18 01:09:23;;;;;;;5.50;5.20;;;;;;;7.16;86.59;100156.97;5309695;26;20238;-76
2024/04/18 01:11:49;;;;;;;5.20;4.80;;;;;;;7.22;86.19;100156.91;5309662;26;20234;-77
2024/04/18 01:14:17;;;;;;;5.57;5.17;;;;;;;7.13;85.70;100178.59;5306905;26;20297;-75
2024/04/18 01:16:42;;;;;;;5.50;5.10;;;;;;;7.16;85.34;100185.50;5308590;26;20282;-76
2024/04/18 01:19:20;;;;;;;5.20;4.80;;;;;;;7.27;86.42;100175.00;5308959;26;20232;-76
2024/04/18 01:21:45;;;;;;;4.73;4.43;;;;;;;7.00;85.51;100192.56;5309752;26;20281;-77
2024/04/18 01:24:14;;;;;;;4.57;4.20;;;;;;;7.06;85.96;100196.84;5308609;26;20239;-77
2024/04/18 01:26:42;;;;;;;5.60;5.20;;;;;;;6.95;86.63;100179.63;5310017;26;20239;-78
2024/04/18 01:29:10;;;;;;;4.77;4.40;;;;;;;6.94;86.07;100183.09;5310215;26;20851;-77
2024/04/18 01:31:35;;;;;;;5.57;5.17;;;;;;;7.00;86.40;100178.72;5308476;26;20239;-76
2024/04/18 01:34:03;;;;;;;5.50;5.10;;;;;;;7.06;85.79;100186.47;5309454;26;20281;-75
2024/04/18 01:36:29;;;;;;;7.33;6.83;;;;;;;7.08;86.38;100190.78;5308005;26;20287;-77
2024/04/18 01:38:57;;;;;;;6.43;6.03;;;;;;;7.19;86.47;100179.44;5308815;26;20233;-77
2024/04/18 01:41:23;;;;;;;8.43;7.73;;;;;;;7.03;86.59;100187.34;5309418;26;20236;-77
2024/04/18 01:43:54;;;;;;;8.87;8.27;;;;;;;6.95;86.56;100194.34;5308400;26;20270;-77
2024/04/18 01:46:19;;;;;;;8.33;7.73;;;;;;;6.92;88.65;100158.06;5310109;26;20235;-78
2024/04/18 01:48:48;;;;;;;9.70;8.90;;;;;;;6.94;88.82;100138.13;5309594;26;20738;-77
2024/04/18 01:51:14;;;;;;;10.00;9.30;;;;;;;6.35;90.51;100145.50;5309310;26;20237;-77
2024/04/18 01:53:42;;;;;;;9.40;8.70;;;;;;;6.19;93.76;100079.09;5308887;26;20625;-77
2024/04/18 01:56:07;;;;;;;11.70;10.60;;;;;;;5.81;96.73;100025.75;5309767;26;20279;-77
2024/04/18 01:58:35;;;;;;;12.97;11.27;;;;;;;5.74;99.37;99958.44;5307751;27;20242;-76
2024/04/18 02:01:03;;;;;;;12.13;11.10;;;;;;;6.05;98.74;99931.50;5309108;27;20231;-77
2024/04/18 02:03:32;;;;;;;10.93;10.07;;;;;;;6.17;98.18;99928.78;5309433;27;20344;-77
2024/04/18 02:05:57;;;;;;;11.63;10.63;;;;;;;6.33;97.35;99938.13;5308341;27;20285;-77
2024/04/18 02:08:25;;;;;;;10.00;9.20;;;;;;;6.31;96.53;99957.19;5308310;27;20729;-75
2024/04/18 02:10:50;;;;;;;10.00;9.30;;;;;;;6.03;96.48;99967.78;5308917;26;20231;-78
2024/04/18 02:13:18;;;;;;;9.83;8.93;;;;;;;6.22;97.38;99959.84;5308100;26;20294;-76
2024/04/18 02:15:44;;;;;;;9.47;8.67;;;;;;;6.11;97.45;99955.63;5307282;26;20238;-75
2024/04/18 02:18:14;;;;;;;10.80;9.90;;;;;;;6.27;98.02;99955.50;5309002;26;20550;-78
2024/04/18 02:20:40;;;;;;;10.77;9.97;;;;;;;6.07;97.68;99964.28;5299420;26;20278;-77
2024/04/18 02:23:08;;;;;;;11.10;10.10;;;;;;;6.02;98.47;99953.09;5305011;27;20239;-77
2024/04/18 02:25:33;;;;;;;10.07;9.27;;;;;;;6.32;98.58;99946.81;5308306;27;20235;-77
2024/04/18 02:28:01;;;;;;;11.20;10.30;;;;;;;6.37;97.93;99949.34;5299712;26;20276;-75
2024/04/18 02:30:27;;;;;;;11.10;10.20;;;;;;;6.67;97.50;99961.13;5306857;26;20230;-78
2024/04/18 02:32:54;;;;;;;10.03;9.33;;;;;;;6.71;95.88;99986.16;5307368;27;20291;-78
2024/04/18 02:35:22;;;;;;;11.53;10.57;;;;;;;6.44;94.45;100021.00;5309349;26;20293;-77
2024/04/18 02:37:50;;;;;;;11.80;10.80;;;;;;;6.24;95.19;100017.69;5307801;27;20298;-77
2024/04/18 02:40:16;;;;;;;12.70;11.70;;;;;;;5.62;98.31;100014.66;5308381;27;20270;-77
2024/04/18 02:42:44;;;;;;;12.40;11.30;;;;;;;6.04;98.48;99971.22;5309024;27;20585;-77
2024/04/18 02:45:09;;;;;;;11.87;11.03;;;;;;;6.16;97.68;99974.59;5308573;27;20274;-77
2024/04/18 02:47:37;;;;;;;11.50;10.60;;;;;;;6.39;96.86;99986.47;5306495;27;20399;-77
2024/04/18 02:50:03;;;;;;;10.97;10.07;;;;;;;6.64;95.93;99999.19;5308926;27;20575;-77
2024/04/18 02:52:34;;;;;;;10.53;9.73;;;;;;;6.74;94.14;100026.78;5309453;27;20272;-78
2024/04/18 02:54:59;;;;;;;11.03;10.23;;;;;;;6.42;92.31;100071.13;5307040;26;20274;-77
2024/04/18 02:57:28;;;;;;;10.70;9.90;;;;;;;6.19;91.73;100103.28;5308518;27;20729;-77
2024/04/18 02:59:53;;;;;;;11.70;10.83;;;;;;;6.07;91.85;100114.56;5307892;26;20269;-77
2024/04/18 03:02:21;;;;;;;10.87;10.07;;;;;;;5.92;93.12;100112.88;5308261;27;20233;-77
2024/04/18 03:04:47;;;;;;;11.60;10.50;;;;;;;5.50;94.23;100095.81;5308234;26;20274;-77
2024/04/18 03:07:15;;;;;;;11.57;10.57;;;;;;;5.74;94.83;100076.72;5307611;27;20234;-77
2024/04/18 03:09:43;;;;;;;12.67;11.67;;;;;;;5.60;95.11;100068.16;5307593;27;20233;-77
2024/04/18 03:12:11;;;;;;;11.33;10.30;;;;;;;5.63;96.22;100052.59;5307572;27;20789;-77
2024/04/18 03:14:36;;;;;;;11.83;10.83;;;;;;;5.14;98.10;100035.56;5307207;27;20799;-77
2024/04/18 03:17:04;;;;;;;11.30;10.37;;;;;;;5.27;99.51;100008.78;5308682;27;20233;-77
2024/04/18 03:19:29;;;;;;;12.13;11.23;;;;;;;5.39;99.01;99992.31;5307951;26;20231;-77
2024/04/18 03:21:57;;;;;;;12.67;11.57;;;;;;;5.53;98.26;100005.19;5308317;27;20271;-77
2024/04/18 03:24:23;;;;;;;11.67;10.67;;;;;;;5.38;98.45;100008.72;5306407;27;20238;-77
2024/04/18 03:26:54;;;;;;;11.60;10.60;;;;;;;5.41;98.60;100000.97;5307359;27;20790;-77
2024/04/18 03:29:20;;;;;;;12.10;11.17;;;;;;;5.15;98.96;100001.03;5303474;27;20234;-76
2024/04/18 03:31:49;;;;;;;13.60;12.60;;;;;;;5.05;100.00;99979.53;5305688;27;20288;-76
2024/04/18 03:34:15;;;;;;;14.67;12.63;;;;;;;5.01;100.00;99970.06;5306505;27;20238;-76
2024/04/18 03:36:43;;;;;;;13.10;12.07;;;;;;;4.78;100.00;99957.22;5305830;27;20297;-76
2024/04/18 03:39:11;;;;;;;14.00;12.90;;;;;;;4.82;100.00;99919.31;5306366;27;20348;-76
2024/04/18 03:41:40;;;;;;;15.17;13.80;;;;;;;4.93;100.00;99907.16;5307300;27;20336;-77
2024/04/18 03:44:10;;;;;;;14.03;12.83;;;;;;;4.95;100.00;99908.00;5306902;27;20256;-77
2024/04/18 03:46:39;;;;;;;13.50;12.23;;;;;;;4.92;100.00;99910.63;5306747;26;20378;-77
2024/04/18 03:49:08;;;;;;;15.33;14.00;;;;;;;4.73;100.00;99899.50;5307550;27;20238;-77
2024/04/18 03:51:33;;;;;;;15.13;13.87;;;;;;;4.59;100.00;99889.19;5306407;27;20242;-76
2024/04/18 03:54:01;;;;;;;14.40;13.27;;;;;;;4.65;100.00;99870.22;5306541;27;20633;-76
2024/04/18 03:56:27;;;;;;;15.53;14.03;;;;;;;4.54;100.00;99865.13;5298863;27;20243;-76
2024/04/18 03:58:55;;;;;;;16.17;14.87;;;;;;;4.75;100.00;99869.31;5302834;27;20281;-76
2024/04/18 04:01:25;;;;;;;14.70;13.40;;;;;;;4.68;100.00;99876.25;5310782;27;20261;-75
2024/04/18 04:03:53;;;;;;;14.80;13.57;;;;;;;4.89;100.00;99871.84;5310212;27;20265;-76
2024/04/18 04:06:18;;;;;;;14.33;13.07;;;;;;;5.17;100.00;99880.31;5309698;27;20288;-77
2024/04/18 04:08:46;;;;;;;18.67;13.80;;;;;;;5.05;100.00;99914.00;5309684;27;20590;-77
2024/04/18 04:11:12;;;;;;;13.53;12.43;;;;;;;5.08;100.00;99938.13;5310534;27;20734;-77
2024/04/18 04:13:40;;;;;;;13.37;12.30;;;;;;;5.24;100.00;99951.84;5310766;27;20283;-77
2024/04/18 04:16:05;;;;;;;13.40;12.30;;;;;;;5.27;100.00;99975.16;5307963;27;20245;-75
2024/04/18 04:18:36;;;;;;;13.03;12.03;;;;;;;5.15;100.00;100007.09;5307682;27;20234;-76
2024/04/18 04:21:02;;;;;;;12.50;11.60;;;;;;;4.85;100.00;100020.13;5310851;27;20233;-76
2024/04/18 04:23:30;;;;;;;11.97;11.07;;;;;;;5.01;100.00;100019.19;5320138;27;20242;-76
2024/04/18 04:25:55;;;;;;;12.63;11.63;;;;;;;4.84;100.00;100024.44;5323352;27;20233;-75
2024/04/18 04:28:23;;;;;;;11.90;10.80;;;;;;;4.86;100.00;100014.94;5324131;27;20234;-76
2024/04/18 04:30:49;;;;;;;12.93;11.83;;;;;;;4.92;100.00;100009.75;5319779;27;20272;-76
2024/04/18 04:33:17;;;;;;;12.33;11.13;;;;;;;5.20;100.00;100025.19;5319104;27;20233;-76
2024/04/18 04:35:45;;;;;;;13.13;12.03;;;;;;;5.14;99.93;100043.31;5309554;27;20242;-77
2024/04/18 04:38:13;;;;;;;13.13;12.07;;;;;;;5.25;99.41;100053.63;5310122;27;20264;-75
2024/04/18 04:40:38;;;;;;;11.23;10.13;;;;;;;5.44;99.17;100073.41;5311208;27;20234;-78
2024/04/18 04:43:06;;;;;;;11.17;10.27;;;;;;;5.38;98.16;100091.53;5310318;26;20234;-77
2024/04/18 04:45:31;;;;;;;10.90;9.90;;;;;;;5.62;98.19;100100.09;5310543;27;20241;-77
2024/04/18 04:48:00;;;;;;;10.57;9.67;;;;;;;5.77;98.08;100111.25;5310348;26;20297;-76
2024/04/18 04:50:25;;;;;;;10.63;9.73;;;;;;;5.48;96.93;100136.38;5310368;26;20237;-78
2024/04/18 04:52:55;;;;;;;10.60;9.70;;;;;;;5.22;98.35;100134.72;5310638;26;20242;-75
2024/04/18 04:55:21;;;;;;;10.20;9.40;;;;;;;4.94;100.00;100119.25;5309360;26;20320;-76
2024/04/18 04:57:49;;;;;;;10.47;9.67;;;;;;;5.04;100.00;100093.38;5309768;26;20776;-76
2024/04/18 05:00:15;;;;;;;11.10;10.20;;;;;;;4.81;100.00;100077.88;5309427;26;20238;-76
2024/04/18 05:02:43;;;;;;;10.47;9.53;;;;;;;4.67;100.00;100052.91;5309562;27;20297;-75
2024/04/18 05:05:08;;;;;;;10.03;9.23;;;;;;;4.79;100.00;100039.09;5309613;26;20621;-77
2024/04/18 05:07:37;;;;;;;10.23;9.33;;;;;;;4.90;100.00;100039.09;5308030;26;20242;-77
2024/04/18 05:10:06;;;;;;;10.10;9.40;;;;;;;5.02;100.00;100044.22;5308193;26;20268;-76
2024/04/18 05:12:34;;;;;;;9.53;8.83;;;;;;;5.31;100.00;100046.72;5309754;26;20230;-75
2024/04/18 05:14:59;;;;;;;10.03;9.13;;;;;;;5.10;100.00;100063.16;5309067;26;20238;-76
2024/04/18 05:17:28;;;;;;;9.80;9.10;;;;;;;5.20;100.00;100066.59;5306947;26;20276;-77
2024/04/18 05:19:53;;;;;;;9.60;8.80;;;;;;;5.32;100.00;100076.03;5308369;26;20563;-76
2024/04/18 05:22:21;;;;;;;8.67;7.97;;;;;;;5.43;100.00;100095.00;5308923;26;20283;-77
2024/04/18 05:24:46;;;;;;;9.67;8.97;;;;;;;5.37;100.00;100106.22;5307829;26;20289;-76
2024/04/18 05:27:17;;;;;;;8.80;8.10;;;;;;;5.47;100.00;100125.16;5308962;26;20233;-76
2024/04/18 05:32:29;;;;;;;8.00;7.40;;;;;;;5.41;100.00;100135.53;5311685;27;20335;-78
2024/04/18 05:34:57;;;;;;;9.10;8.40;;;;;;;5.23;100.00;100120.03;5305486;26;20300;-77
2024/04/18 05:37:25;;;;;;;8.93;8.23;;;;;;;5.31;100.00;100110.53;5306331;26;20346;-78
2024/04/18 05:39:54;;;;;;;9.30;8.60;;;;;;;5.33;100.00;100112.28;5314744;26;20245;-79
2024/04/18 05:42:45;;;;;;;9.03;8.33;;;;;;;5.52;100.00;100110.47;5313942;26;20268;-78
2024/04/18 05:45:13;;;;;;;9.20;8.40;;;;;;;5.41;100.00;100122.59;5313739;26;20247;-80
2024/04/18 05:47:41;;;;;;;8.33;7.73;;;;;;;5.16;100.00;100114.88;5314084;26;20273;-78
2024/04/18 05:50:07;;;;;;;10.17;9.17;;;;;;;5.24;100.00;100099.34;5313237;26;20273;-79
2024/04/18 05:52:35;;;;;;;10.67;9.77;;;;;;;5.32;100.00;100083.81;5313180;26;20234;-79
2024/04/18 05:55:03;;;;;;;10.57;9.67;;;;;;;5.26;100.00;100078.66;5313356;26;20238;-79
2024/04/18 05:57:34;;;;;;;10.40;9.60;;;;;;;5.62;100.00;100075.03;5300899;27;20264;-79
2024/04/18 06:00:05;;;;;;;9.60;8.90;;;;;;;5.61;100.00;100091.47;5313841;26;20238;-80
2024/04/18 06:02:33;;;;;;;10.67;9.77;;;;;;;5.42;100.00;100098.44;5313619;26;20791;-79
2024/04/18 06:05:01;;;;;;;9.73;8.93;;;;;;;5.70;100.00;100106.09;5312788;26;20281;-78
2024/04/18 06:07:33;;;;;;;9.80;8.93;;;;;;;5.69;100.00;100112.13;5313208;26;20249;-79
2024/04/18 06:10:01;;;;;;;10.15;9.35;;;;;;;5.75;100.00;100117.31;5314691;26;20371;-80
2024/04/18 06:12:29;;;;;;;10.10;9.30;;;;;;;5.90;100.00;100119.78;5314482;26;20265;-79
2024/04/18 06:14:57;;;;;;;11.20;10.20;;;;;;;5.86;100.00;100125.84;5311958;26;20272;-76
2024/04/18 06:17:27;;;;;;;11.30;10.20;;;;;;;6.03;100.00;100123.22;5312950;27;20246;-79
2024/04/18 06:19:55;;;;;;;11.50;10.40;;;;;;;5.81;100.00;100135.41;5314002;27;20289;-80
2024/04/18 06:22:23;;;;;;;11.10;10.30;;;;;;;5.95;100.00;100138.81;5314222;27;20270;-80
2024/04/18 06:24:53;;;;;;;11.73;10.70;;;;;;;5.98;100.00;100143.09;5313289;27;20246;-79
2024/04/18 06:27:21;;;;;;;10.83;10.03;;;;;;;5.75;100.00;100157.00;5314841;26;20354;-79
2024/04/18 06:29:51;;;;;;;11.00;9.63;;;;;;;5.71;100.00;100151.84;5314135;27;20266;-78
2024/04/18 06:32:19;;;;;;;11.30;10.20;;;;;;;6.14;100.00;100142.19;5313501;26;20234;-79
2024/04/18 06:34:50;;;;;;;10.60;9.80;;;;;;;6.31;100.00;100155.03;5310266;27;20238;-78
2024/04/18 06:37:21;;;;;;;10.93;9.93;;;;;;;6.64;100.00;100165.16;5310923;26;20343;-80
2024/04/18 06:39:49;;;;;;;10.73;9.73;;;;;;;6.82;100.00;100201.38;5313949;26;20280;-80
2024/04/18 06:42:17;;;;;;;10.90;10.00;;;;;;;6.72;99.33;100236.03;5314162;26;20269;-78
2024/04/18 06:44:45;;;;;;;12.20;11.00;;;;;;;6.74;98.69;100242.91;5314346;27;20246;-80
2024/04/18 06:47:13;;;;;;;10.87;9.87;;;;;;;6.97;97.73;100266.09;5316051;27;20282;-80
2024/04/18 06:49:41;;;;;;;10.60;9.80;;;;;;;7.17;96.91;100270.28;5314451;26;20238;-79
2024/04/18 06:52:11;;;;;;;10.60;9.70;;;;;;;6.94;95.16;100315.44;5314888;26;20239;-79
2024/04/18 06:54:39;;;;;;;10.57;9.70;;;;;;;6.98;95.53;100326.66;5313341;26;20374;-80
2024/04/18 06:57:07;;;;;;;11.80;10.70;;;;;;;6.73;96.18;100326.78;5313953;26;20239;-78
2024/04/18 06:59:35;;;;;;;11.47;10.47;;;;;;;7.15;96.37;100313.56;5313520;27;20273;-79
2024/04/18 07:02:03;;;;;;;11.27;10.23;;;;;;;7.49;95.29;100321.09;5313342;27;20725;-79
2024/04/18 07:04:31;;;;;;;13.37;12.17;;;;;;;7.46;93.57;100353.16;5313912;27;20282;-80
2024/04/18 07:07:00;;;;;;;12.20;11.10;;;;;;;7.76;92.58;100378.00;5313901;27;20305;-79
2024/04/18 07:09:30;;;;;;;12.17;11.13;;;;;;;7.94;91.57;100410.78;5313920;27;20319;-80
2024/04/18 07:12:00;;;;;;;12.60;11.40;;;;;;;7.43;90.86;100438.00;5316154;27;20239;-80
2024/04/18 07:14:28;;;;;;;13.13;11.87;;;;;;;7.58;91.12;100450.06;5313221;27;20243;-80
2024/04/18 07:16:56;;;;;;;12.13;11.03;;;;;;;7.50;90.98;100452.69;5313368;27;20238;-80
2024/04/18 07:19:24;;;;;;;13.70;12.50;;;;;;;7.55;91.74;100451.78;5313852;27;20232;-79
2024/04/18 07:21:52;;;;;;;14.30;12.83;;;;;;;7.63;90.36;100461.25;5313753;27;20648;-78
2024/04/18 07:24:22;;;;;;;13.60;12.30;;;;;;;7.78;90.27;100471.56;5312726;27;20364;-78
2024/04/18 07:26:53;;;;;;;12.43;11.20;;;;;;;7.83;91.03;100466.31;5313702;27;20278;-79
2024/04/18 07:29:21;;;;;;;12.53;11.47;;;;;;;7.90;90.91;100470.59;5313994;27;20226;-80
2024/04/18 07:31:49;;;;;;;12.30;11.20;;;;;;;7.93;91.70;100455.84;5314546;27;20236;-80
2024/04/18 07:34:17;;;;;;;10.67;9.80;;;;;;;8.18;91.53;100449.59;5315916;27;20277;-80
2024/04/18 07:36:47;;;;;;;11.63;10.60;;;;;;;8.25;90.22;100459.06;5316699;26;20787;-79
2024/04/18 07:39:15;;;;;;;14.13;12.10;;;;;;;7.99;88.93;100495.66;5312968;27;20251;-77
2024/04/18 07:41:43;;;;;;;11.87;10.87;;;;;;;7.74;90.79;100501.88;5312884;27;20234;-77
2024/04/18 07:44:13;;;;;;;11.03;10.20;;;;;;;8.05;90.46;100480.88;5312954;27;20282;-80
2024/04/18 07:46:41;;;;;;;11.30;10.40;;;;;;;7.91;89.76;100493.13;5315412;27;20230;-81
2024/04/18 07:49:10;;;;;;;9.57;8.77;;;;;;;7.74;89.34;100511.41;5315964;27;20239;-80
2024/04/18 07:51:38;;;;;;;9.80;8.90;;;;;;;7.92;88.84;100526.03;5316896;26;20693;-80
2024/04/18 07:54:06;;;;;;;9.20;8.33;;;;;;;8.01;87.81;100532.88;5314660;26;20300;-80
2024/04/18 07:56:34;;;;;;;9.07;8.37;;;;;;;7.79;88.19;100552.97;5316459;26;20278;-80
2024/04/18 07:59:03;;;;;;;9.17;8.47;;;;;;;7.40;89.37;100553.16;5316642;26;20234;-81
2024/04/18 08:01:35;;;;;;;9.83;8.93;;;;;;;7.59;90.42;100515.00;5316378;26;20254;-79
2024/04/18 08:04:03;;;;;;;8.03;7.37;;;;;;;7.53;88.63;100530.56;5315669;26;20331;-79
2024/04/18 08:06:31;;;;;;;8.47;7.77;;;;;;;7.77;89.16;100529.59;5312977;26;20243;-77
2024/04/18 08:08:59;;;;;;;7.77;7.20;;;;;;;7.86;86.82;100552.06;5314566;26;20236;-80
2024/04/18 08:11:27;;;;;;;9.53;8.63;;;;;;;7.77;87.31;100576.38;5316210;26;20746;-80
2024/04/18 08:13:54;;;;;;;7.87;7.17;;;;;;;8.09;86.85;100570.97;5315225;26;20751;-80
2024/04/18 08:16:22;;;;;;;7.07;6.57;;;;;;;8.31;87.25;100581.22;5315702;26;20271;-81
2024/04/18 08:18:54;;;;;;;9.07;7.77;;;;;;;8.31;87.38;100571.69;5316405;26;20342;-80
2024/04/18 08:21:22;;;;;;;8.00;7.30;;;;;;;8.21;85.54;100601.22;5316281;26;20336;-79
2024/04/18 08:23:51;;;;;;;8.10;7.40;;;;;;;8.34;85.19;100622.81;5314824;26;20236;-78
2024/04/18 08:26:19;;;;;;;7.07;6.40;;;;;;;8.31;82.51;100654.91;5315127;26;20282;-79
2024/04/18 08:28:47;;;;;;;7.03;6.53;;;;;;;8.25;82.12;100712.16;5315326;26;20240;-77
2024/04/18 08:31:15;;;;;;;7.70;7.10;;;;;;;8.26;81.94;100713.03;5316044;26;20231;-80
2024/04/18 08:33:43;;;;;;;7.93;7.33;;;;;;;8.48;82.09;100713.78;5323550;26;20224;-80
2024/04/18 08:36:14;;;;;;;8.90;8.20;;;;;;;8.55;81.77;100736.31;5330526;26;20238;-80
2024/04/18 08:38:44;;;;;;;9.60;8.80;;;;;;;8.58;83.40;100735.41;5317805;26;20292;-79
2024/04/18 08:41:16;;;;;;;8.50;7.90;;;;;;;8.88;83.42;100705.72;5315796;26;20259;-79
2024/04/18 08:43:44;;;;;;;7.53;7.00;;;;;;;8.89;79.94;100742.16;5312183;26;20274;-77
2024/04/18 08:46:13;;;;;;;7.47;6.97;;;;;;;8.88;79.04;100800.31;4573701;26;10000650;-79
2024/04/18 08:48:42;;;;;;;6.50;6.10;;;;;;;9.02;77.72;100828.88;5297166;27;20239;-77
2024/04/18 08:51:11;;;;;;;7.27;6.77;;;;;;;9.06;76.49;100867.03;5307780;26;20283;-77
2024/04/18 08:53:42;;;;;;;7.47;6.97;;;;;;;9.29;77.35;100874.69;5307515;26;20738;-80
2024/04/18 08:56:12;;;;;;;7.93;7.23;;;;;;;9.43;77.65;100886.75;5308140;26;20234;-77
2024/04/18 08:58:40;;;;;;;7.23;6.73;;;;;;;9.48;75.44;100909.31;5307746;26;20293;-77
2024/04/18 09:01:08;;;;;;;6.50;6.10;;;;;;;9.64;75.07;100925.69;5307253;26;20239;-76
2024/04/18 09:03:37;;;;;;;5.93;5.43;;;;;;;9.65;71.82;100983.91;5307843;26;20236;-76
2024/04/18 09:06:05;;;;;;;5.70;5.30;;;;;;;9.47;72.02;101040.47;5307712;26;20244;-77
2024/04/18 09:08:33;;;;;;;5.97;5.47;;;;;;;9.47;72.59;101037.84;5306674;26;20243;-77
2024/04/18 09:11:06;;;;;;;5.60;5.17;;;;;;;9.43;72.91;101050.91;5307434;26;20234;-76
2024/04/18 09:13:34;;;;;;;6.23;5.83;;;;;;;9.49;72.09;101062.19;5307175;26;20269;-77
2024/04/18 09:16:02;;;;;;;5.73;5.23;;;;;;;9.44;71.45;101063.94;5322339;26;20242;-77
2024/04/18 09:18:34;;;;;;;5.30;4.90;;;;;;;9.67;71.41;101074.28;5330698;26;20274;-76
2024/04/18 09:21:03;;;;;;;5.87;5.47;;;;;;;9.73;71.81;101087.28;5330072;26;20227;-77
2024/04/18 09:23:32;;;;;;;5.90;5.50;;;;;;;9.85;73.24;101085.44;5317027;26;20228;-76
2024/04/18 09:26:02;;;;;;;5.90;5.40;;;;;;;9.83;72.79;101059.41;5307658;26;20723;-76
2024/04/18 09:28:31;;;;;;;5.63;5.13;;;;;;;9.97;70.56;101088.03;5306957;26;20274;-76
2024/04/18 09:31:00;;;;;;;5.23;4.83;;;;;;;9.93;70.04;101109.78;5307110;26;20235;-76
2024/04/18 09:33:28;;;;;;;6.53;5.93;;;;;;;9.40;72.10;101114.34;5306916;26;20239;-76
2024/04/18 09:35:58;;;;;;;5.60;5.20;;;;;;;9.56;72.78;101096.91;5307022;26;20240;-76
2024/04/18 09:38:31;;;;;;;6.13;5.63;;;;;;;9.94;71.73;101072.38;5306821;26;20285;-77
2024/04/18 09:41:10;;;;;;;8.37;7.67;;;;;;;9.94;70.59;101101.91;5307468;26;20238;-77
2024/04/18 09:43:46;;;;;;;7.23;6.63;;;;;;;10.19;70.13;101106.13;5306746;26;20270;-75
2024/04/18 09:46:15;;;;;;;8.67;7.90;;;;;;;10.32;71.39;101106.06;5306527;26;20240;-75
2024/04/18 09:48:44;;;;;;;7.43;6.83;;;;;;;10.45;70.15;101114.69;5307094;26;20821;-76
2024/04/18 09:51:14;;;;;;;7.67;6.97;;;;;;;10.12;70.19;101131.38;5306795;26;20237;-76
2024/04/18 09:53:43;;;;;;;5.70;5.20;;;;;;;10.19;67.46;101148.75;5306589;26;20278;-77
2024/04/18 09:56:14;;;;;;;4.90;4.50;;;;;;;10.32;64.73;101214.78;5306429;26;20230;-75
2024/04/18 09:58:44;;;;;;;6.00;5.40;;;;;;;10.20;65.16;101257.44;5307318;26;20234;-77
2024/04/18 10:01:12;;;;;;;5.30;4.90;;;;;;;10.16;66.13;101249.63;5307005;26;20402;-77
2024/04/18 10:03:42;;;;;;;4.37;4.00;;;;;;;9.96;65.81;101266.22;5306269;26;20621;-77
2024/04/18 10:06:13;;;;;;;4.07;3.77;;;;;;;9.79;66.23;101278.44;5306644;26;20295;-77
2024/04/18 10:08:44;;;;;;;4.40;4.03;;;;;;;9.53;66.52;101280.22;5305875;26;20234;-77
2024/04/18 10:11:16;;;;;;;4.30;3.90;;;;;;;9.79;67.96;101245.44;5306337;26;20747;-77
2024/04/18 10:13:44;;;;;;;5.10;4.60;;;;;;;9.94;67.19;101221.88;5306675;26;20746;-77
2024/04/18 10:16:15;;;;;;;5.30;4.80;;;;;;;10.21;66.45;101234.81;5306349;26;20366;-76
2024/04/18 10:18:44;;;;;;;4.87;4.47;;;;;;;10.22;64.21;101268.72;5306481;26;20269;-77
2024/04/18 10:21:15;;;;;;;4.73;4.33;;;;;;;10.26;62.46;101304.38;5306329;26;20234;-77
2024/04/18 10:23:46;;;;;;;4.20;3.90;;;;;;;10.14;62.21;101341.81;5305300;26;20234;-76
2024/04/18 10:26:17;;;;;;;4.77;4.40;;;;;;;10.29;62.50;101356.56;5305993;26;20234;-77
2024/04/18 10:28:44;;;;;;;4.33;4.03;;;;;;;10.48;61.93;101356.53;5306316;26;20599;-76
2024/04/18 10:31:13;;;;;;;4.07;3.00;;;;;;;10.64;58.52;101393.88;5306193;26;20268;-77
2024/04/18 10:33:42;;;;;;;3.70;3.40;;;;;;;10.59;57.10;101450.50;5306193;26;20239;-76
2024/04/18 10:36:11;;;;;;;3.10;2.73;;;;;;;10.78;58.16;101474.78;5305866;26;20239;-76
2024/04/18 10:38:44;;;;;;;2.87;2.50;;;;;;;10.65;57.04;101532.28;5305765;26;20353;-77
2024/04/18 10:41:14;;;;;;;3.00;2.80;;;;;;;10.78;57.14;101532.25;5306506;26;20269;-77
2024/04/18 10:43:45;;;;;;;2.90;2.70;;;;;;;10.92;56.97;101530.47;5305909;26;20342;-74
2024/04/18 10:46:14;;;;;;;3.13;2.93;;;;;;;10.79;57.75;101560.13;5305364;26;20283;-76
2024/04/18 10:48:41;;;;;;;3.57;3.00;;;;;;;10.79;55.35;101563.59;5306116;26;20237;-76
2024/04/18 10:51:09;;;;;;;2.90;2.70;;;;;;;10.98;55.22;101589.66;5306347;26;20271;-76
2024/04/18 10:53:38;;;;;;;3.10;2.90;;;;;;;11.27;56.68;101586.97;5305590;26;20236;-76
2024/04/18 10:56:07;;;;;;;3.17;2.87;;;;;;;11.41;55.88;101587.78;5304902;26;20249;-77
2024/04/18 10:58:36;;;;;;;3.00;2.80;;;;;;;11.46;55.39;101599.13;5309979;26;20283;-79
2024/04/18 11:01:06;;;;;;;3.30;2.80;;;;;;;11.18;53.95;101623.59;5310852;26;20239;-80
2024/04/18 11:03:35;;;;;;;3.40;3.10;;;;;;;11.36;54.12;101640.97;5308545;26;20237;-78
2024/04/18 11:06:04;;;;;;;3.30;3.00;;;;;;;11.25;52.51;101667.16;5309644;26;20360;-80
2024/04/18 11:08:33;;;;;;;2.60;2.40;;;;;;;10.83;52.18;101706.38;5308343;26;20235;-79
2024/04/18 11:11:01;;;;;;;3.40;3.10;;;;;;;10.95;54.02;101700.28;5310561;26;20289;-81
2024/04/18 11:13:29;;;;;;;2.87;2.67;;;;;;;11.20;55.17;101664.56;5311766;26;20268;-79
2024/04/18 11:16:17;;;;;;;3.00;2.80;;;;;;;11.34;55.33;101633.16;5310589;26;20307;-82
2024/04/18 11:19:16;;;;;;;2.80;2.60;;;;;;;11.24;53.62;101648.00;5310949;26;20236;-80
2024/04/18 11:21:44;;;;;;;2.50;2.30;;;;;;;11.25;55.38;101646.25;5311660;26;20340;-81
2024/04/18 11:24:12;;;;;;;4.43;4.07;;;;;;;11.38;56.07;101620.91;5309847;26;20240;-80
2024/04/18 11:26:40;;;;;;;4.57;4.17;;;;;;;11.32;56.64;101599.16;5310990;26;20250;-81
2024/04/18 11:29:09;;;;;;;3.53;3.20;;;;;;;11.47;55.60;101589.53;5309224;26;20238;-80
2024/04/18 11:31:37;;;;;;;3.50;3.20;;;;;;;11.35;54.20;101600.03;5308379;26;21143;-80